Time;durP1;ratioP1;P1;durP2;ratioP2;P2;SDS_P1;SDS_P2;PMS_P1;PMS_P2;Temp;Humidity;BMP_temperature;BMP_pressure;BME280_temperature;BME280_humidity;BME280_pressure;Samples;Min_cycle;Max_cycle;Signal;HPM_P1;HPM_P2
2021/08/18 07:48:52;;;;;;;6.30;3.00;;;17.90;99.90;;;;;;12024159;28;20407;-61
2021/08/18 07:54:39;;;;;;;4.13;2.55;;;18.60;99.90;;;;;;12012779;28;20049;-61
2021/08/18 08:00:26;;;;;;;8.38;3.17;;;19.30;99.90;;;;;;12018192;28;20057;-59
2021/08/18 08:06:14;;;;;;;5.80;3.15;;;19.50;99.90;;;;;;12009194;28;20960;-60
2021/08/18 08:12:01;;;;;;;5.95;2.92;;;19.80;99.90;;;;;;12005725;28;20048;-59
2021/08/18 08:17:48;;;;;;;6.55;3.00;;;19.90;99.90;;;;;;12006749;28;20093;-60
2021/08/18 08:23:36;;;;;;;5.43;3.28;;;19.70;99.90;;;;;;12018456;28;20044;-60
2021/08/18 08:29:27;;;;;;;9.05;3.65;;;19.70;99.90;;;;;;12010804;28;20143;-60
2021/08/18 08:35:14;;;;;;;5.03;3.30;;;19.90;99.90;;;;;;12019307;28;20057;-60
2021/08/18 08:41:02;;;;;;;4.30;3.22;;;20.50;99.90;;;;;;12020871;28;20412;-60
2021/08/18 08:46:50;;;;;;;7.05;3.25;;;20.60;99.90;;;;;;12011681;28;20057;-60
2021/08/18 08:52:37;;;;;;;3.65;3.10;;;20.50;99.90;;;;;;12015237;28;20051;-60
2021/08/18 08:58:26;;;;;;;6.35;3.70;;;20.70;99.90;;;;;;11990830;28;20510;-60
2021/08/18 09:04:27;;;;;;;4.90;3.58;;;20.60;99.90;;;;;;11978941;28;20045;-60
2021/08/18 09:10:15;;;;;;;6.95;3.78;;;20.60;99.90;;;;;;11982154;28;20068;-60
2021/08/18 09:16:07;;;;;;;7.45;4.10;;;20.50;99.90;;;;;;11979481;28;20045;-60
2021/08/18 09:21:54;;;;;;;9.05;3.85;;;20.30;99.90;;;;;;11978438;28;20056;-60
2021/08/18 09:27:42;;;;;;;9.45;4.35;;;20.20;99.90;;;;;;11982084;28;20501;-60
2021/08/18 09:33:35;;;;;;;5.78;3.60;;;20.50;99.90;;;;;;11979903;28;20060;-60
2021/08/18 09:39:24;;;;;;;5.85;3.40;;;20.80;99.90;;;;;;11977942;28;20079;-60
2021/08/18 09:45:16;;;;;;;5.75;3.38;;;21.10;99.90;;;;;;11976577;28;20056;-60
2021/08/18 09:51:05;;;;;;;3.40;2.70;;;21.20;99.90;;;;;;11980719;28;20417;-60
2021/08/18 09:56:52;;;;;;;6.07;3.33;;;21.50;99.90;;;;;;11975265;28;20048;-60
2021/08/18 10:02:40;;;;;;;5.22;2.75;;;21.30;99.90;;;;;;11976893;28;20072;-60
2021/08/18 10:08:29;;;;;;;6.50;2.90;;;21.50;99.90;;;;;;11972602;28;20045;-60
2021/08/18 10:14:16;;;;;;;4.93;2.20;;;21.50;99.90;;;;;;11977083;28;20057;-59
2021/08/18 10:20:04;;;;;;;4.70;2.20;;;21.60;99.90;;;;;;11974549;28;20516;-60
2021/08/18 10:25:52;;;;;;;4.80;2.30;;;21.50;99.90;;;;;;11976932;28;20045;-60
2021/08/18 10:31:56;;;;;;;2.70;2.03;;;21.80;99.90;;;;;;11978926;28;20053;-59
2021/08/18 10:37:43;;;;;;;2.58;1.45;;;21.70;99.90;;;;;;11973971;28;20059;-60
2021/08/18 10:43:58;;;;;;;1.88;1.30;;;22.00;99.90;;;;;;11975017;28;20049;-60
2021/08/18 10:49:47;;;;;;;3.15;2.08;;;22.50;97.90;;;;;;11983877;28;20045;-60
2021/08/18 10:55:34;;;;;;;4.05;2.90;;;22.80;97.90;;;;;;11974612;28;20055;-68
2021/08/18 11:01:43;;;;;;;4.65;3.33;;;22.50;98.80;;;;;;11974798;28;20049;-65
2021/08/18 11:08:05;;;;;;;9.15;3.50;;;22.40;99.80;;;;;;11977967;28;20076;-62
2021/08/18 11:13:53;;;;;;;5.23;3.80;;;22.30;99.90;;;;;;11973116;28;20056;-62
2021/08/18 11:19:49;;;;;;;7.13;4.38;;;22.30;98.80;;;;;;11974597;28;20049;-62
2021/08/18 11:25:42;;;;;;;6.97;4.70;;;22.20;99.20;;;;;;11979623;28;20041;-62
2021/08/18 11:31:32;;;;;;;9.15;5.30;;;22.10;98.50;;;;;;11973035;28;20152;-62
2021/08/18 11:37:22;;;;;;;12.48;5.05;;;22.20;98.90;;;;;;11977882;28;21041;-61
2021/08/18 11:43:09;;;;;;;11.48;5.50;;;21.80;99.20;;;;;;11972727;28;20041;-62
2021/08/18 11:49:03;;;;;;;9.68;5.60;;;21.70;99.30;;;;;;11971040;28;20049;-62
2021/08/18 11:54:55;;;;;;;9.07;5.55;;;22.00;98.90;;;;;;11979679;28;20044;-62
2021/08/18 12:00:43;;;;;;;7.45;5.63;;;22.30;98.50;;;;;;11970021;28;20060;-61
2021/08/18 12:06:35;;;;;;;8.18;5.40;;;22.60;98.10;;;;;;11975226;28;20048;-62
2021/08/18 12:12:26;;;;;;;5.95;4.38;;;22.90;97.30;;;;;;11978687;28;20086;-62
2021/08/18 12:18:28;;;;;;;7.18;4.28;;;22.70;96.30;;;;;;11976202;28;20080;-62
2021/08/18 12:24:17;;;;;;;8.68;4.28;;;22.80;96.90;;;;;;11973187;28;20056;-62
2021/08/18 12:30:10;;;;;;;9.90;3.72;;;22.80;97.00;;;;;;11978204;28;20045;-62
2021/08/18 12:36:07;;;;;;;8.00;4.30;;;22.90;95.80;;;;;;11984069;28;20056;-62
2021/08/18 12:41:55;;;;;;;6.88;4.05;;;23.00;96.40;;;;;;11988404;28;20501;-61
2021/08/18 12:47:45;;;;;;;7.43;4.40;;;23.30;97.10;;;;;;11980461;28;20060;-62
2021/08/18 12:53:32;;;;;;;8.10;4.22;;;23.30;95.50;;;;;;11983501;28;20060;-61
2021/08/18 12:59:19;;;;;;;6.03;3.97;;;23.40;95.40;;;;;;11986705;28;20044;-62
2021/08/18 13:05:22;;;;;;;6.93;4.57;;;23.30;95.80;;;;;;11983186;28;20068;-61
2021/08/18 13:11:09;;;;;;;11.70;5.15;;;23.20;95.70;;;;;;11983194;28;20055;-62
2021/08/18 13:16:57;;;;;;;9.20;4.65;;;23.10;96.10;;;;;;11977585;28;20052;-62
2021/08/18 13:22:46;;;;;;;7.15;4.57;;;23.30;96.80;;;;;;11981160;28;20089;-62
2021/08/18 13:28:33;;;;;;;10.55;4.50;;;23.50;96.00;;;;;;11982071;28;20036;-62
2021/08/18 13:34:20;;;;;;;7.63;4.20;;;23.80;95.40;;;;;;11983885;28;20049;-62
2021/08/18 13:40:11;;;;;;;4.80;3.92;;;23.50;95.20;;;;;;11980402;28;20049;-62
2021/08/18 13:45:58;;;;;;;5.80;3.88;;;23.50;95.20;;;;;;11981734;28;20635;-62
2021/08/18 13:51:45;;;;;;;5.43;4.00;;;23.40;95.00;;;;;;11979622;28;20052;-62
2021/08/18 13:57:34;;;;;;;7.35;3.55;;;23.40;94.80;;;;;;11981637;28;20049;-62
2021/08/18 14:03:20;;;;;;;9.13;3.53;;;23.90;94.10;;;;;;11986974;28;20052;-62
2021/08/18 14:09:08;;;;;;;8.57;3.75;;;24.10;93.20;;;;;;11980832;28;20109;-62
2021/08/18 14:14:56;;;;;;;4.80;3.75;;;24.10;93.20;;;;;;11977866;28;20053;-62
2021/08/18 14:20:43;;;;;;;8.35;3.95;;;24.00;93.20;;;;;;11982768;28;20049;-62
2021/08/18 14:26:30;;;;;;;7.07;4.00;;;23.80;93.60;;;;;;11980004;28;20056;-61
2021/08/18 14:32:18;;;;;;;5.75;4.05;;;23.80;93.70;;;;;;11979986;28;20088;-62
2021/08/18 14:38:05;;;;;;;7.20;4.72;;;24.20;93.90;;;;;;11979255;28;20083;-62
2021/08/18 14:43:52;;;;;;;6.25;4.00;;;24.50;92.40;;;;;;11974221;28;20049;-62
2021/08/18 14:49:40;;;;;;;8.52;4.07;;;24.70;91.50;;;;;;11979290;28;20045;-62
2021/08/18 14:55:27;;;;;;;7.78;5.15;;;24.70;91.40;;;;;;11971973;28;20549;-62
2021/08/18 15:01:14;;;;;;;10.05;4.18;;;24.30;91.70;;;;;;11977728;28;20056;-62
2021/08/18 15:07:03;;;;;;;5.50;4.28;;;23.80;92.20;;;;;;11977234;28;21565;-62
2021/08/18 15:12:50;;;;;;;6.72;4.97;;;23.70;92.60;;;;;;11973410;28;20083;-62
2021/08/18 15:18:37;;;;;;;9.48;5.00;;;23.50;93.10;;;;;;11976988;28;20060;-62
2021/08/18 15:24:27;;;;;;;6.10;4.00;;;23.40;93.50;;;;;;11975793;28;20543;-62
2021/08/18 15:30:14;;;;;;;7.45;4.82;;;23.40;93.90;;;;;;11977678;28;20057;-62
2021/08/18 15:36:03;;;;;;;5.95;4.60;;;23.30;94.00;;;;;;11979100;28;20048;-62
2021/08/18 15:41:53;;;;;;;11.65;4.55;;;23.30;94.00;;;;;;11975234;28;20045;-59
2021/08/18 15:47:40;;;;;;;7.45;4.63;;;23.20;94.00;;;;;;11972632;28;20071;-62
2021/08/18 15:53:27;;;;;;;7.82;5.15;;;23.30;94.10;;;;;;11979016;28;20056;-60
2021/08/18 15:59:15;;;;;;;7.20;4.55;;;23.60;94.00;;;;;;11976004;28;20060;-62
2021/08/18 16:05:02;;;;;;;7.82;4.68;;;23.60;93.70;;;;;;11975801;28;20045;-61
2021/08/18 16:10:49;;;;;;;5.63;4.65;;;23.60;94.20;;;;;;11983088;28;20451;-61
2021/08/18 16:16:37;;;;;;;8.02;4.93;;;23.40;94.20;;;;;;11983215;28;20063;-62
2021/08/18 16:22:24;;;;;;;8.48;4.95;;;23.30;94.30;;;;;;11984129;28;20049;-60
2021/08/18 16:28:11;;;;;;;7.22;4.40;;;23.20;94.60;;;;;;11982516;28;20429;-60
2021/08/18 16:33:59;;;;;;;7.68;4.60;;;23.20;94.70;;;;;;11985674;28;20493;-61
2021/08/18 16:39:46;;;;;;;6.45;4.63;;;23.10;95.20;;;;;;11986755;28;20049;-61
2021/08/18 16:45:33;;;;;;;6.30;4.43;;;23.10;95.20;;;;;;11987538;28;20052;-60
2021/08/18 16:51:22;;;;;;;9.35;4.60;;;23.00;95.20;;;;;;11989337;28;20053;-60
2021/08/18 16:57:09;;;;;;;7.88;4.50;;;22.80;95.90;;;;;;11987110;28;20053;-61
2021/08/18 17:02:55;;;;;;;7.75;4.70;;;22.70;96.60;;;;;;11990710;28;20049;-61
2021/08/18 17:08:44;;;;;;;7.13;4.45;;;22.90;96.80;;;;;;11976146;28;20057;-60
2021/08/18 17:14:30;;;;;;;7.13;4.60;;;23.10;96.80;;;;;;11978094;28;20051;-61
2021/08/18 17:20:18;;;;;;;6.10;4.28;;;23.20;96.70;;;;;;11978107;28;20056;-61
2021/08/18 17:26:06;;;;;;;9.30;4.30;;;23.10;96.80;;;;;;11982812;28;20060;-61
2021/08/18 17:31:53;;;;;;;8.27;4.55;;;23.00;97.00;;;;;;11988536;28;20053;-61
2021/08/18 17:37:40;;;;;;;8.10;4.78;;;23.10;97.40;;;;;;11981015;28;20041;-61
2021/08/18 17:43:28;;;;;;;8.95;5.00;;;23.10;97.20;;;;;;11975659;28;20054;-60
2021/08/18 17:55:16;;;;;;;7.97;4.47;;;22.90;97.70;;;;;;12037073;28;20055;-79
2021/08/18 18:01:05;;;;;;;8.30;4.60;;;22.70;97.80;;;;;;12035402;28;20415;-80
2021/08/18 18:13:22;;;;;;;7.03;4.70;;;22.60;97.80;;;;;;11718766;29;20538;-79
2021/08/18 18:19:11;;;;;;;8.23;4.18;;;22.70;97.90;;;;;;11715759;29;20127;-80
2021/08/18 18:25:17;;;;;;;8.55;5.05;;;22.60;97.90;;;;;;11721576;29;20059;-82
2021/08/18 18:31:04;;;;;;;6.97;4.32;;;22.70;98.20;;;;;;11715302;29;20431;-80
2021/08/18 18:36:53;;;;;;;10.02;4.72;;;22.70;98.40;;;;;;11716168;29;20064;-80
2021/08/18 18:43:15;;;;;;;6.35;4.47;;;22.70;98.60;;;;;;11793118;28;20513;-80
2021/08/18 18:49:19;;;;;;;7.03;4.35;;;22.70;98.80;;;;;;12035396;28;20772;-78
2021/08/18 18:55:30;;;;;;;;;;;22.50;99.40;;;;;;12021064;28;20052;-79
2021/08/18 19:07:55;;;;;;;15.38;5.05;;;22.50;99.90;;;;;;12025249;28;20048;-80
2021/08/18 19:13:53;;;;;;;7.50;4.63;;;22.50;99.90;;;;;;12041385;28;20051;-79
2021/08/18 19:27:20;;;;;;;10.13;5.10;;;22.40;99.90;;;;;;12024811;28;20044;-80
2021/08/18 19:39:25;;;;;;;6.35;5.18;;;22.40;99.90;;;;;;12020127;28;20433;-59
2021/08/18 19:45:13;;;;;;;9.30;4.53;;;22.30;99.90;;;;;;12018298;28;20786;-61
2021/08/18 19:51:00;;;;;;;9.35;5.07;;;22.30;99.90;;;;;;12012552;28;20060;-60
2021/08/18 19:56:48;;;;;;;7.40;4.68;;;22.30;99.90;;;;;;12016050;28;20045;-60
2021/08/18 20:02:35;;;;;;;7.28;4.63;;;22.30;99.90;;;;;;12010474;28;20413;-62
2021/08/18 20:08:22;;;;;;;9.60;5.20;;;22.30;99.90;;;;;;12015585;28;20526;-60
2021/08/18 20:14:10;;;;;;;7.90;5.10;;;22.20;99.90;;;;;;12016156;28;20056;-60
2021/08/18 20:19:57;;;;;;;8.77;4.78;;;22.20;99.90;;;;;;12011916;28;20049;-60
2021/08/18 20:25:44;;;;;;;7.13;4.22;;;22.10;99.90;;;;;;12009498;28;20045;-61
2021/08/18 20:31:32;;;;;;;9.43;4.75;;;22.20;99.90;;;;;;12013752;28;20438;-61
2021/08/18 20:37:19;;;;;;;7.30;5.10;;;22.20;99.90;;;;;;12014722;28;20065;-61
2021/08/18 20:43:06;;;;;;;6.65;4.05;;;22.20;99.90;;;;;;12014517;28;20715;-61
2021/08/18 20:48:54;;;;;;;9.63;4.35;;;22.20;99.90;;;;;;11989500;28;20072;-61
2021/08/18 20:54:41;;;;;;;9.23;4.28;;;22.10;99.90;;;;;;11978245;28;20052;-60
2021/08/18 21:00:28;;;;;;;5.85;3.60;;;22.00;99.90;;;;;;11980801;28;20532;-60
2021/08/18 21:06:17;;;;;;;6.53;4.38;;;22.10;99.90;;;;;;11979693;28;20053;-60
2021/08/18 21:12:05;;;;;;;9.35;3.72;;;22.10;99.90;;;;;;11981728;28;20113;-61
2021/08/18 21:17:52;;;;;;;8.00;4.40;;;22.10;99.90;;;;;;11981517;28;20512;-61
2021/08/18 21:23:40;;;;;;;7.40;4.60;;;22.10;99.90;;;;;;12023009;28;20528;-60
2021/08/18 21:29:27;;;;;;;6.22;4.63;;;22.00;99.90;;;;;;12022967;28;20091;-60
2021/08/18 21:35:14;;;;;;;7.82;4.80;;;21.90;99.90;;;;;;12022699;28;20061;-61
2021/08/18 21:41:05;;;;;;;6.07;4.15;;;21.90;99.90;;;;;;12022553;28;20067;-61
2021/08/18 21:46:52;;;;;;;9.10;4.80;;;21.90;99.90;;;;;;12022502;28;20044;-61
2021/08/18 21:52:39;;;;;;;7.72;4.20;;;21.90;99.90;;;;;;12008694;28;20053;-61
2021/08/18 21:58:28;;;;;;;4.22;3.78;;;21.90;99.90;;;;;;11982268;28;20511;-61
2021/08/18 22:04:14;;;;;;;8.23;4.18;;;21.90;99.90;;;;;;11971993;28;20063;-61
2021/08/18 22:10:01;;;;;;;5.47;3.90;;;21.80;99.90;;;;;;11982250;28;20064;-61
2021/08/18 22:15:50;;;;;;;5.30;3.95;;;21.80;99.90;;;;;;11973080;28;20053;-61
